createdAt,value
2022-12-11T00:00:52.445Z,58
2022-12-11T00:01:52.518Z,58
2022-12-11T00:02:52.578Z,58
2022-12-11T00:03:52.545Z,58
2022-12-11T00:04:52.583Z,57.9286
2022-12-11T00:05:52.618Z,58
2022-12-11T00:06:52.648Z,58.0714
2022-12-11T00:07:52.733Z,58.1429
2022-12-11T00:08:52.714Z,58.2143
2022-12-11T00:09:52.750Z,58.1429
2022-12-11T00:10:52.796Z,58.2143
2022-12-11T00:11:52.812Z,58.4286
2022-12-11T00:12:52.872Z,58.2857
2022-12-11T00:13:52.881Z,58.2143
2022-12-11T00:14:52.909Z,58.3571
2022-12-11T00:15:52.939Z,58.4286
2022-12-11T00:16:53.011Z,58.5
2022-12-11T00:17:53.011Z,58.4286
2022-12-11T00:18:53.047Z,58.5714
2022-12-11T00:19:53.067Z,58.6429
2022-12-11T00:20:53.100Z,58.5714
2022-12-11T00:21:53.138Z,58.5714
2022-12-11T00:22:53.164Z,58.6429
2022-12-11T00:23:53.211Z,58.6429
2022-12-11T00:24:53.224Z,58.5714
2022-12-11T00:25:53.266Z,58.6429
2022-12-11T00:26:53.299Z,58.7143
2022-12-11T00:27:53.329Z,58.7143
2022-12-11T00:28:53.390Z,58.7857
2022-12-11T00:29:53.393Z,58.7857
2022-12-11T00:30:53.431Z,58.7143
2022-12-11T00:31:53.482Z,58.7143
2022-12-11T00:32:53.490Z,58.7857
2022-12-11T00:33:53.525Z,58.7143
2022-12-11T00:34:53.553Z,58.7143
2022-12-11T00:35:53.590Z,58.7143
2022-12-11T00:36:53.622Z,58.7143
2022-12-11T00:37:53.657Z,58.8571
2022-12-11T00:38:53.688Z,58.6429
2022-12-11T00:39:53.754Z,58.7143
2022-12-11T00:40:53.743Z,58.7143
2022-12-11T00:41:53.773Z,58.7857
2022-12-11T00:42:53.820Z,58.8571
2022-12-11T00:43:53.854Z,58.9286
2022-12-11T00:44:53.904Z,58.9286
2022-12-11T00:45:53.957Z,58.8571
2022-12-11T00:46:53.946Z,58.7143
2022-12-11T00:47:53.978Z,58.7143
2022-12-11T00:48:54.012Z,58.7143
2022-12-11T00:49:54.053Z,58.7857
2022-12-11T00:50:54.102Z,58.8571
2022-12-11T00:51:54.127Z,58.9286
2022-12-11T00:52:54.160Z,58.8571
2022-12-11T00:53:54.194Z,58.7857
2022-12-11T00:54:54.226Z,58.7143
2022-12-11T00:55:54.266Z,58.7143
2022-12-11T00:56:54.289Z,58.6429
2022-12-11T00:57:54.320Z,58.7857
2022-12-11T00:58:54.344Z,58.7857
2022-12-11T00:59:54.384Z,58.9286
2022-12-11T01:00:54.579Z,58.9286
2022-12-11T01:01:54.451Z,58.9286
2022-12-11T01:02:54.602Z,58.7143
2022-12-11T01:03:54.503Z,58.7857
2022-12-11T01:04:54.540Z,58.7857
2022-12-11T01:05:54.567Z,58.9286
2022-12-11T01:06:54.666Z,58.7857
2022-12-11T01:07:54.676Z,58.8571
2022-12-11T01:08:54.682Z,58.7857
2022-12-11T01:09:54.702Z,58.7857
2022-12-11T01:10:54.771Z,58.7143
2022-12-11T01:11:54.774Z,58.7857
2022-12-11T01:12:54.802Z,58.7857
2022-12-11T01:13:54.824Z,58.8571
2022-12-11T01:14:54.865Z,58.7857
2022-12-11T01:15:54.896Z,58.7857
2022-12-11T01:16:54.997Z,58.7857
2022-12-11T01:17:54.964Z,58.7143
2022-12-11T01:18:54.979Z,58.7143
2022-12-11T01:19:55.012Z,58.8571
2022-12-11T01:20:55.038Z,58.7857
2022-12-11T01:21:55.085Z,58.8571
2022-12-11T01:22:55.158Z,58.7143
2022-12-11T01:23:55.143Z,58.7857
2022-12-11T01:24:55.186Z,58.7857
2022-12-11T01:25:55.215Z,58.7143
2022-12-11T01:26:55.239Z,58.6429
2022-12-11T01:27:55.294Z,58.6429
2022-12-11T01:28:55.293Z,58.6429
2022-12-11T01:29:55.335Z,58.7143
2022-12-11T01:30:55.420Z,58.7857
2022-12-11T01:31:55.395Z,58.7143
2022-12-11T01:32:55.447Z,58.7143
2022-12-11T01:33:55.476Z,58.6429
2022-12-11T01:34:55.486Z,58.7143
2022-12-11T01:35:55.512Z,58.9286
2022-12-11T01:36:55.535Z,58.7857
2022-12-11T01:37:55.572Z,58.7857
2022-12-11T01:38:55.609Z,58.8571
2022-12-11T01:39:55.633Z,58.8571
2022-12-11T01:40:55.667Z,58.8571
2022-12-11T01:41:55.704Z,59
2022-12-11T01:42:55.737Z,59
2022-12-11T01:43:55.793Z,59.0714
2022-12-11T01:44:55.792Z,59.1429
2022-12-11T01:45:55.881Z,59.2143
2022-12-11T01:46:55.866Z,59.2143
2022-12-11T01:47:55.894Z,59.2143
2022-12-11T01:48:55.938Z,59.2143
2022-12-11T01:49:55.961Z,59.0714
2022-12-11T01:50:55.992Z,59
2022-12-11T01:51:56.026Z,59.0714
2022-12-11T01:52:56.050Z,59.1429
2022-12-11T01:53:56.083Z,59.0714
2022-12-11T01:54:56.117Z,59
2022-12-11T01:55:56.137Z,59
2022-12-11T01:56:56.163Z,59
2022-12-11T01:57:56.197Z,59.1429
2022-12-11T01:58:56.237Z,59.0714
2022-12-11T01:59:56.305Z,59
2022-12-11T02:00:56.333Z,59
2022-12-11T02:01:56.322Z,59
2022-12-11T02:02:56.349Z,58.9286
2022-12-11T02:03:56.380Z,58.8571
2022-12-11T02:04:56.435Z,58.9286
2022-12-11T02:05:56.444Z,58.9286
2022-12-11T02:06:56.470Z,58.7857
2022-12-11T02:07:56.565Z,58.9286
2022-12-11T02:08:56.539Z,59
2022-12-11T02:09:56.594Z,58.9286
2022-12-11T02:10:56.598Z,58.9286
2022-12-11T02:11:56.638Z,59
2022-12-11T02:12:56.672Z,59
2022-12-11T02:13:56.703Z,59.0714
2022-12-11T02:14:56.771Z,59.0714
2022-12-11T02:15:56.857Z,59
2022-12-11T02:16:56.802Z,59.1429
2022-12-11T02:17:56.823Z,59.1429
2022-12-11T02:18:56.860Z,59.1429
2022-12-11T02:19:56.925Z,59.1429
2022-12-11T02:20:56.927Z,59.2857
2022-12-11T02:21:56.949Z,59.3571
2022-12-11T02:22:56.984Z,59.3571
2022-12-11T02:23:57.015Z,59.3571
2022-12-11T02:24:57.046Z,59.2857
2022-12-11T02:25:57.079Z,59.4286
2022-12-11T02:26:57.109Z,59.4286
2022-12-11T02:27:57.148Z,59.3571
2022-12-11T02:28:57.169Z,59.2143
2022-12-11T02:29:57.204Z,59.3571
2022-12-11T02:30:57.267Z,59.2857
2022-12-11T02:31:57.261Z,59.2143
2022-12-11T02:32:57.302Z,59.1429
2022-12-11T02:33:57.338Z,59.0714
2022-12-11T02:34:57.376Z,59
2022-12-11T02:35:57.416Z,59
2022-12-11T02:36:57.434Z,58.9286
2022-12-11T02:37:57.456Z,58.8571
2022-12-11T02:38:57.494Z,58.7857
2022-12-11T02:39:57.524Z,58.7143
2022-12-11T02:40:57.616Z,58.7143
2022-12-11T02:41:57.594Z,58.7143
2022-12-11T02:42:57.633Z,58.7857
2022-12-11T02:43:57.659Z,58.7857
2022-12-11T02:44:57.698Z,58.7143
2022-12-11T02:45:57.808Z,58.7143
2022-12-11T02:46:57.758Z,58.7143
2022-12-11T02:47:57.781Z,58.5714
2022-12-11T02:48:57.813Z,58.6429
2022-12-11T02:49:57.843Z,58.7857
2022-12-11T02:50:57.895Z,58.6429
2022-12-11T02:51:57.910Z,58.5
2022-12-11T02:52:57.947Z,58.5
2022-12-11T02:53:57.970Z,58.5
2022-12-11T02:54:58.009Z,58.5
2022-12-11T02:55:58.038Z,58.4286
2022-12-11T02:56:58.080Z,58.5
2022-12-11T02:57:58.106Z,58.5
2022-12-11T02:58:58.840Z,58.5
2022-12-11T02:59:58.172Z,58.5714
2022-12-11T03:00:58.249Z,58.5
2022-12-11T03:01:58.293Z,58.5
2022-12-11T03:02:58.274Z,58.5
2022-12-11T03:03:58.310Z,58.3571
2022-12-11T03:04:58.345Z,58.2857
2022-12-11T03:05:58.389Z,58.3571
2022-12-11T03:06:58.428Z,58.3571
2022-12-11T03:07:58.528Z,58.3571
2022-12-11T03:08:58.470Z,58.4286
2022-12-11T03:09:58.508Z,58.3571
2022-12-11T03:10:58.535Z,58.2857
2022-12-11T03:11:58.564Z,58.2143
2022-12-11T03:12:58.588Z,58.2857
2022-12-11T03:13:58.611Z,58.4286
2022-12-11T03:14:58.644Z,58.4286
2022-12-11T03:15:58.711Z,58.5
2022-12-11T03:16:58.731Z,58.5714
2022-12-11T03:17:58.746Z,58.5
2022-12-11T03:18:58.770Z,58.5714
2022-12-11T03:19:58.805Z,58.5
2022-12-11T03:20:58.838Z,58.5
2022-12-11T03:21:58.904Z,58.5714
2022-12-11T03:22:58.900Z,58.6429
2022-12-11T03:23:58.936Z,58.6429
2022-12-11T03:24:58.969Z,58.7857
2022-12-11T03:25:59.005Z,58.7143
2022-12-11T03:27:00.951Z,58.7857
2022-12-11T03:27:59.053Z,58.7857
2022-12-11T03:28:59.086Z,58.7143
2022-12-11T03:29:59.113Z,58.6429
2022-12-11T03:30:59.199Z,58.6429
2022-12-11T03:31:59.160Z,58.7143
2022-12-11T03:32:59.196Z,58.7857
2022-12-11T03:33:59.222Z,58.7857
2022-12-11T03:34:59.241Z,59
2022-12-11T03:35:59.270Z,59.0714
2022-12-11T03:36:59.301Z,59.0714
2022-12-11T03:37:59.357Z,59
2022-12-11T03:38:59.372Z,59
2022-12-11T03:39:59.406Z,59.0714
2022-12-11T03:40:59.422Z,59.1429
2022-12-11T03:41:59.451Z,59
2022-12-11T03:42:59.505Z,59
2022-12-11T03:43:59.542Z,59
2022-12-11T03:44:59.544Z,59.1429
2022-12-11T03:45:59.653Z,59.1429
2022-12-11T03:46:59.623Z,59.1429
2022-12-11T03:47:59.654Z,59.1429
2022-12-11T03:48:59.706Z,59.1429
2022-12-11T03:49:59.716Z,59.1429
2022-12-11T03:50:59.746Z,59.2143
2022-12-11T03:51:59.789Z,59.2143
2022-12-11T03:52:59.814Z,59.2143
2022-12-11T03:53:59.889Z,59.2143
2022-12-11T03:54:59.878Z,59.1429
2022-12-11T03:55:59.911Z,59.1429
2022-12-11T03:56:59.936Z,59.3571
2022-12-11T03:57:59.974Z,59.4286
2022-12-11T03:59:00.029Z,59.5714
2022-12-11T04:00:00.035Z,59.6429
2022-12-11T04:01:00.088Z,59.6429
2022-12-11T04:02:00.165Z,59.6429
2022-12-11T04:03:00.137Z,59.5714
2022-12-11T04:04:00.234Z,59.6429
2022-12-11T04:05:00.213Z,59.5714
2022-12-11T04:06:00.223Z,59.5
2022-12-11T04:07:00.258Z,59.5714
2022-12-11T04:08:00.319Z,59.6429
2022-12-11T04:09:00.323Z,59.7143
2022-12-11T04:10:00.373Z,59.5714
2022-12-11T04:11:00.389Z,59.6429
2022-12-11T04:12:00.415Z,59.5
2022-12-11T04:13:00.445Z,59.6429
2022-12-11T04:14:00.481Z,59.6429
2022-12-11T04:15:00.533Z,59.6429
2022-12-11T04:16:00.577Z,59.7143
2022-12-11T04:17:00.577Z,59.7143
2022-12-11T04:18:00.603Z,59.7857
2022-12-11T04:19:00.648Z,59.7857
2022-12-11T04:20:00.671Z,59.7143
2022-12-11T04:21:00.697Z,59.6429
2022-12-11T04:22:00.734Z,59.8571
2022-12-11T04:23:00.765Z,59.9286
2022-12-11T04:24:00.805Z,60
2022-12-11T04:25:00.840Z,60.1429
2022-12-11T04:26:00.883Z,60.1429
2022-12-11T04:27:00.896Z,60.2143
2022-12-11T04:28:00.928Z,60.2143
2022-12-11T04:29:00.965Z,60.2143
2022-12-11T04:30:01.000Z,60.1429
2022-12-11T04:31:01.135Z,60.1429
2022-12-11T04:32:01.064Z,60.2143
2022-12-11T04:33:01.084Z,60.1429
2022-12-11T04:34:01.121Z,60.2143
2022-12-11T04:35:01.166Z,60.1429
2022-12-11T04:36:01.178Z,60.0714
2022-12-11T04:37:01.234Z,60.0714
2022-12-11T04:38:01.237Z,60.1429
2022-12-11T04:39:01.275Z,60.1429
2022-12-11T04:40:01.312Z,60.2857
2022-12-11T04:41:01.339Z,60.4286
2022-12-11T04:42:01.394Z,60.5
2022-12-11T04:43:01.393Z,60.5714
2022-12-11T04:44:01.429Z,60.5
2022-12-11T04:45:01.466Z,60.5
2022-12-11T04:46:01.537Z,60.5714
2022-12-11T04:47:01.542Z,60.5714
2022-12-11T04:48:01.568Z,60.5714
2022-12-11T04:49:01.605Z,60.6429
2022-12-11T04:50:01.645Z,60.5714
2022-12-11T04:51:01.668Z,60.5714
2022-12-11T04:52:01.724Z,60.5714
2022-12-11T04:53:01.738Z,60.5714
2022-12-11T04:54:01.768Z,60.5714
2022-12-11T04:55:01.795Z,60.5714
2022-12-11T04:56:01.832Z,60.5714
2022-12-11T04:57:01.888Z,60.6429
2022-12-11T04:58:01.892Z,60.6429
2022-12-11T04:59:01.929Z,60.6429
2022-12-11T05:00:01.968Z,60.7143
2022-12-11T05:01:01.978Z,60.7143
2022-12-11T05:02:02.115Z,60.7857
2022-12-11T05:03:02.086Z,60.7857
2022-12-11T05:04:02.070Z,60.8571
2022-12-11T05:05:02.107Z,60.8571
2022-12-11T05:06:02.137Z,60.9286
2022-12-11T05:07:02.173Z,60.9286
2022-12-11T05:08:02.282Z,60.9286
2022-12-11T05:09:02.238Z,60.9286
2022-12-11T05:10:02.269Z,61
2022-12-11T05:11:02.296Z,61
2022-12-11T05:12:02.330Z,61.0714
2022-12-11T05:13:02.380Z,61.0714
2022-12-11T05:14:02.392Z,61.0714
2022-12-11T05:15:02.425Z,61.0714
2022-12-11T05:16:02.483Z,61.0714
2022-12-11T05:17:02.487Z,61
2022-12-11T05:18:02.525Z,61
2022-12-11T05:19:02.536Z,61.1429
2022-12-11T05:20:02.572Z,61.1429
2022-12-11T05:21:02.616Z,61.1429
2022-12-11T05:22:02.645Z,61.1429
2022-12-11T05:23:02.689Z,61.0714
2022-12-11T05:24:02.696Z,61.0714
2022-12-11T05:25:02.731Z,61.0714
2022-12-11T05:26:02.755Z,61.0714
2022-12-11T05:27:02.794Z,61
2022-12-11T05:28:02.835Z,61
2022-12-11T05:29:02.856Z,61.1429
2022-12-11T05:30:02.882Z,61.2143
2022-12-11T05:31:02.953Z,61.2143
2022-12-11T05:32:02.936Z,61.0714
2022-12-11T05:33:02.978Z,61.0714
2022-12-11T05:34:03.001Z,61.0714
2022-12-11T05:35:03.042Z,61.1429
2022-12-11T05:36:03.077Z,61.0714
2022-12-11T05:37:03.107Z,61.1429
2022-12-11T05:38:03.146Z,61
2022-12-11T05:39:03.207Z,61
2022-12-11T05:40:03.220Z,60.8571
2022-12-11T05:41:03.245Z,60.8571
2022-12-11T05:42:03.269Z,60.9286
2022-12-11T05:43:03.293Z,60.7857
2022-12-11T05:44:03.363Z,60.8571
2022-12-11T05:45:03.369Z,60.9286
2022-12-11T05:46:03.401Z,60.9286
2022-12-11T05:47:03.432Z,61
2022-12-11T05:48:03.471Z,60.9286
2022-12-11T05:49:03.506Z,61
2022-12-11T05:50:03.535Z,61
2022-12-11T05:51:03.574Z,61.0714
2022-12-11T05:52:03.604Z,60.9286
2022-12-11T05:53:03.663Z,60.8571
2022-12-11T05:54:03.666Z,60.8571
2022-12-11T05:55:03.691Z,61
2022-12-11T05:56:03.728Z,61.0714
2022-12-11T05:57:03.760Z,61
2022-12-11T05:58:03.823Z,61
2022-12-11T05:59:03.825Z,60.9286
2022-12-11T06:00:03.858Z,60.9286
2022-12-11T06:01:03.883Z,60.9286
2022-12-11T06:02:04.057Z,60.9286
2022-12-11T06:03:04.041Z,60.8571
2022-12-11T06:04:03.970Z,61
2022-12-11T06:05:04.008Z,61
2022-12-11T06:06:04.034Z,61.0714
2022-12-11T06:07:04.061Z,61.0714
2022-12-11T06:08:04.125Z,61.1429
2022-12-11T06:09:04.122Z,61.1429
2022-12-11T06:10:04.147Z,61.1429
2022-12-11T06:11:04.174Z,61.0714
2022-12-11T06:12:04.211Z,61.0714
2022-12-11T06:13:04.239Z,61.0714
2022-12-11T06:14:04.264Z,61
2022-12-11T06:15:04.299Z,61.2143
2022-12-11T06:16:04.403Z,61.3571
2022-12-11T06:17:04.358Z,61.2857
2022-12-11T06:18:04.390Z,61.2857
2022-12-11T06:19:04.458Z,61.2143
2022-12-11T06:20:04.442Z,61.0714
2022-12-11T06:21:04.464Z,61.0714
2022-12-11T06:22:04.509Z,61.1429
2022-12-11T06:23:04.522Z,61.2143
2022-12-11T06:24:04.589Z,61.2143
2022-12-11T06:25:04.624Z,61.5
2022-12-11T06:26:04.629Z,61.5
2022-12-11T06:27:04.660Z,61.5
2022-12-11T06:28:04.680Z,61.2857
2022-12-11T06:29:09.024Z,61.2143
2022-12-11T06:30:04.741Z,61.0714
2022-12-11T06:31:04.777Z,61.0714
2022-12-11T06:32:04.886Z,61.2857
2022-12-11T06:33:04.846Z,61.2857
2022-12-11T06:34:04.899Z,61.4286
2022-12-11T06:35:04.911Z,61.5
2022-12-11T06:36:04.941Z,61.5
2022-12-11T06:37:04.978Z,61.5714
2022-12-11T06:38:04.998Z,61.6429
2022-12-11T06:39:05.048Z,61.7857
2022-12-11T06:40:05.069Z,61.7857
2022-12-11T06:41:05.113Z,61.7143
2022-12-11T06:42:05.125Z,61.7143
2022-12-11T06:43:05.160Z,61.6429
2022-12-11T06:44:05.187Z,61.6429
2022-12-11T06:45:05.259Z,61.5714
2022-12-11T06:46:05.408Z,61.5
2022-12-11T06:47:05.287Z,61.5714
2022-12-11T06:48:05.323Z,61.5714
2022-12-11T06:49:05.365Z,61.5
2022-12-11T06:50:05.396Z,61.3571
2022-12-11T06:51:05.444Z,61.3571
2022-12-11T06:52:05.439Z,61.3571
2022-12-11T06:53:05.474Z,61.3571
2022-12-11T06:54:05.499Z,61.4286
2022-12-11T06:55:05.556Z,61.4286
2022-12-11T06:56:05.552Z,61.5
2022-12-11T06:57:05.589Z,61.4286
2022-12-11T06:58:05.642Z,61.3571
2022-12-11T06:59:07.560Z,61.3571
2022-12-11T07:00:05.688Z,61.4286
2022-12-11T07:01:05.798Z,61.5714
2022-12-11T07:02:05.793Z,61.5
2022-12-11T07:03:05.804Z,61.5
2022-12-11T07:04:05.809Z,61.5
2022-12-11T07:05:05.845Z,61.6429
2022-12-11T07:06:05.875Z,61.6429
2022-12-11T07:07:05.909Z,61.5714
2022-12-11T07:08:05.972Z,61.5
2022-12-11T07:09:05.970Z,61.4286
2022-12-11T07:10:08.270Z,61.5714
2022-12-11T07:11:06.022Z,61.7143
2022-12-11T07:12:06.056Z,61.7143
2022-12-11T07:13:06.087Z,61.6429
2022-12-11T07:14:06.123Z,61.5714
2022-12-11T07:15:06.158Z,61.6429
2022-12-11T07:16:06.194Z,61.6429
2022-12-11T07:17:06.219Z,61.7143
2022-12-11T07:18:06.249Z,61.6429
2022-12-11T07:19:06.292Z,61.5
2022-12-11T07:20:06.304Z,61.5
2022-12-11T07:21:06.337Z,61.5714
2022-12-11T07:22:06.369Z,61.4286
2022-12-11T07:23:06.392Z,61.4286
2022-12-11T07:24:06.443Z,61.5
2022-12-11T07:25:06.445Z,61.5714
2022-12-11T07:26:06.474Z,61.5714
2022-12-11T07:27:06.494Z,61.6429
2022-12-11T07:28:06.537Z,61.7143
2022-12-11T07:29:06.592Z,61.7143
2022-12-11T07:30:06.579Z,61.6429
2022-12-11T07:31:06.605Z,61.6429
2022-12-11T07:32:06.789Z,61.5714
2022-12-11T07:33:06.676Z,61.5
2022-12-11T07:34:06.732Z,61.2857
2022-12-11T07:35:06.742Z,61.2143
2022-12-11T07:36:06.793Z,61.3571
2022-12-11T07:37:06.807Z,61.5
2022-12-11T07:38:06.834Z,61.2857
2022-12-11T07:39:06.870Z,60.9286
2022-12-11T07:40:06.892Z,60.6429
2022-12-11T07:41:06.958Z,60.5
2022-12-11T07:42:06.968Z,60.2857
2022-12-11T07:43:06.994Z,60
2022-12-11T07:44:07.023Z,59.7857
2022-12-11T07:45:07.050Z,59.5714
2022-12-11T07:46:07.144Z,59.4286
2022-12-11T07:47:07.124Z,59.2143
2022-12-11T07:48:07.152Z,59.2857
2022-12-11T07:49:07.180Z,59.2857
2022-12-11T07:50:07.223Z,59.3571
2022-12-11T07:51:07.290Z,59.1429
2022-12-11T07:52:07.280Z,59
2022-12-11T07:53:07.310Z,59.0714
2022-12-11T07:54:07.337Z,58.8571
2022-12-11T07:55:07.393Z,58.7857
2022-12-11T07:56:07.425Z,59
2022-12-11T07:57:13.903Z,58.5714
2022-12-11T07:58:07.489Z,58.5
2022-12-11T07:59:07.506Z,58.4286
2022-12-11T08:00:07.542Z,58.4286
2022-12-11T08:01:07.592Z,58.4286
2022-12-11T08:02:07.632Z,58.5
2022-12-11T08:03:07.673Z,58.7857
2022-12-11T08:04:07.663Z,58.5714
2022-12-11T08:05:07.699Z,58.2857
2022-12-11T08:06:07.726Z,58.6429
2022-12-11T08:07:07.751Z,58.5
2022-12-11T08:08:07.848Z,58.5714
2022-12-11T08:09:07.805Z,58.6429
2022-12-11T08:10:07.847Z,58.5
2022-12-11T08:11:07.878Z,58.2143
2022-12-11T08:12:07.910Z,58.2857
2022-12-11T08:13:07.952Z,58.1429
2022-12-11T08:14:07.974Z,58.5714
2022-12-11T08:15:08.122Z,58.7143
2022-12-11T08:16:08.037Z,58.7857
2022-12-11T08:17:08.133Z,58.8571
2022-12-11T08:18:08.095Z,58.5714
2022-12-11T08:19:08.155Z,58.4286
2022-12-11T08:20:08.164Z,58.5714
2022-12-11T08:21:08.191Z,58.5714
2022-12-11T08:22:08.225Z,58.5
2022-12-11T08:23:08.261Z,58.5
2022-12-11T08:24:08.283Z,58.2857
2022-12-11T08:25:08.596Z,58.2143
2022-12-11T08:26:08.326Z,58.1429
2022-12-11T08:27:08.359Z,58
2022-12-11T08:28:08.396Z,58.1429
2022-12-11T08:29:08.429Z,58.3571
2022-12-11T08:30:08.459Z,58.4286
2022-12-11T08:31:08.559Z,58.5
2022-12-11T08:32:12.260Z,58.6429
2022-12-11T08:33:08.546Z,58.7143
2022-12-11T08:34:08.624Z,58.6429
2022-12-11T08:35:08.862Z,58.6429
2022-12-11T08:36:08.635Z,58.5714
2022-12-11T08:37:08.667Z,58.2857
2022-12-11T08:38:08.712Z,58.2857
2022-12-11T08:39:08.747Z,58.4286
2022-12-11T08:40:08.753Z,58.5
2022-12-11T08:41:08.784Z,58.3571
2022-12-11T08:42:08.816Z,58.2857
2022-12-11T08:43:08.843Z,58
2022-12-11T08:44:14.505Z,58.1429
2022-12-11T08:45:09.138Z,57.7857
2022-12-11T08:46:08.972Z,57.7857
2022-12-11T08:47:08.953Z,57.5
2022-12-11T08:48:08.996Z,57.3571
2022-12-11T08:49:09.026Z,57.5
2022-12-11T08:50:09.076Z,57.5714
2022-12-11T08:51:09.084Z,57.4286
2022-12-11T08:52:09.111Z,56.9286
2022-12-11T08:53:09.152Z,56.7857
2022-12-11T08:54:09.184Z,56.8571
2022-12-11T08:55:09.562Z,56.8571
2022-12-11T08:56:09.244Z,56.8571
2022-12-11T08:57:09.270Z,56.5714
2022-12-11T08:58:09.304Z,56.4286
2022-12-11T08:59:09.334Z,56.4286
2022-12-11T09:00:09.387Z,56.2143
2022-12-11T09:01:09.509Z,56.2857
2022-12-11T09:02:09.491Z,55.8571
2022-12-11T09:03:12.800Z,56.0714
2022-12-11T09:04:09.483Z,55.9286
2022-12-11T09:05:09.811Z,55.9286
2022-12-11T09:06:09.541Z,55.7143
2022-12-11T09:07:09.571Z,55.7857
2022-12-11T09:08:09.682Z,56.0714
2022-12-11T09:09:09.624Z,56.1429
2022-12-11T09:10:09.664Z,56.1429
2022-12-11T09:11:09.696Z,56
2022-12-11T09:12:09.711Z,56
2022-12-11T09:13:09.758Z,56.1429
2022-12-11T09:14:09.765Z,56.0714
2022-12-11T09:15:10.169Z,56.2857
2022-12-11T09:16:09.835Z,56.3571
2022-12-11T09:17:09.861Z,56.2857
2022-12-11T09:18:09.923Z,56.1429
2022-12-11T09:19:09.916Z,56.2143
2022-12-11T09:20:09.937Z,56.2857
2022-12-11T09:21:09.964Z,56.0714
2022-12-11T09:22:09.990Z,56.0714
2022-12-11T09:23:10.067Z,56.1429
2022-12-11T09:24:10.060Z,56.2143
2022-12-11T09:25:10.374Z,56.2143
2022-12-11T09:26:10.110Z,56.4286
2022-12-11T09:27:10.135Z,56.6429
2022-12-11T09:28:10.183Z,56.6429
2022-12-11T09:29:10.202Z,56.6429
2022-12-11T09:30:10.232Z,56.6429
2022-12-11T09:31:10.274Z,56.7857
2022-12-11T09:32:10.294Z,56.9286
2022-12-11T09:33:10.333Z,57
2022-12-11T09:34:10.357Z,56.9286
2022-12-11T09:35:10.591Z,56.6429
2022-12-11T09:36:10.405Z,56.1429
2022-12-11T09:37:10.442Z,56.0714
2022-12-11T09:38:10.479Z,56.2857
2022-12-11T09:39:10.540Z,56.2857
2022-12-11T09:40:10.562Z,56.5
2022-12-11T09:41:10.563Z,56.5714
2022-12-11T09:42:10.595Z,56.3571
2022-12-11T09:43:10.619Z,56.1429
2022-12-11T09:44:10.670Z,56.5
2022-12-11T09:45:10.959Z,56.5
2022-12-11T09:46:10.764Z,56.2857
2022-12-11T09:47:10.745Z,56.3571
2022-12-11T09:48:10.787Z,56.1429
2022-12-11T09:49:10.858Z,56.4286
2022-12-11T09:50:10.854Z,56.2143
2022-12-11T09:51:10.870Z,56.2143
2022-12-11T09:52:10.902Z,56.5
2022-12-11T09:53:10.947Z,56.2857
2022-12-11T09:54:11.005Z,56.2143
2022-12-11T09:55:11.275Z,56.0714
2022-12-11T09:56:11.143Z,56
2022-12-11T09:57:11.073Z,56.0714
2022-12-11T09:58:11.114Z,56
2022-12-11T09:59:11.138Z,55.7857
2022-12-11T10:00:11.167Z,55.6429
2022-12-11T10:01:11.294Z,55.7857
2022-12-11T10:02:11.296Z,55.7143
2022-12-11T10:03:11.269Z,55.4286
2022-12-11T10:04:11.292Z,55.3571
2022-12-11T10:05:11.551Z,55.3571
2022-12-11T10:06:11.373Z,55.5
2022-12-11T10:07:11.398Z,55.4286
2022-12-11T10:08:11.527Z,55.6429
2022-12-11T10:09:11.475Z,55.6429
2022-12-11T10:10:11.501Z,55.5714
2022-12-11T10:11:11.529Z,55.6429
2022-12-11T10:12:11.575Z,55.6429
2022-12-11T10:13:11.612Z,55.6429
2022-12-11T10:14:11.622Z,55.7143
2022-12-11T10:15:12.061Z,55.8571
2022-12-11T10:16:11.738Z,55.8571
2022-12-11T10:17:11.731Z,55.8571
2022-12-11T10:18:11.798Z,56.1429
2022-12-11T10:19:11.798Z,56.0714
2022-12-11T10:20:11.823Z,55.7143
2022-12-11T10:21:11.852Z,55.7857
2022-12-11T10:22:11.887Z,55.7857
2022-12-11T10:23:11.929Z,55.8571
2022-12-11T10:24:11.943Z,56.0714
2022-12-11T10:25:23.164Z,55.9286
2022-12-11T10:26:12.007Z,55.9286
2022-12-11T10:27:12.036Z,55.8571
2022-12-11T10:28:12.065Z,56.0714
2022-12-11T10:29:12.119Z,56
2022-12-11T10:30:12.131Z,55.7857
2022-12-11T10:31:12.229Z,55.5714
2022-12-11T10:32:12.185Z,55.5
2022-12-11T10:33:12.210Z,55.7857
2022-12-11T10:34:12.263Z,56.1429
2022-12-11T10:35:12.557Z,56.2143
2022-12-11T10:36:12.307Z,56.0714
2022-12-11T10:37:12.332Z,56
2022-12-11T10:38:12.365Z,56.0714
2022-12-11T10:39:12.454Z,56
2022-12-11T10:40:12.428Z,55.9286
2022-12-11T10:41:12.458Z,56.0714
2022-12-11T10:42:12.491Z,55.9286
2022-12-11T10:43:12.528Z,56.2143
2022-12-11T10:44:12.607Z,56
2022-12-11T10:45:12.752Z,55.7857
2022-12-11T10:46:12.641Z,55.5714
2022-12-11T10:47:12.648Z,55.7857
2022-12-11T10:48:12.683Z,56
2022-12-11T10:49:12.723Z,55.7857
2022-12-11T10:50:12.745Z,55.7857
2022-12-11T10:51:12.774Z,55.8571
2022-12-11T10:52:12.809Z,55.7143
2022-12-11T10:53:12.839Z,55.5714
2022-12-11T10:54:12.869Z,55.5714
2022-12-11T10:55:13.158Z,55.6429
2022-12-11T10:56:12.911Z,55.6429
2022-12-11T10:57:12.962Z,55.9286
2022-12-11T10:58:12.964Z,56.2143
2022-12-11T10:59:13.000Z,56.3571
2022-12-11T11:00:13.047Z,56.4286
2022-12-11T11:01:13.120Z,56.5714
2022-12-11T11:02:13.086Z,56.5
2022-12-11T11:03:13.184Z,56.4286
2022-12-11T11:04:13.136Z,55.9286
2022-12-11T11:05:13.569Z,55.9286
2022-12-11T11:06:13.208Z,55.9286
2022-12-11T11:07:13.231Z,55.7143
2022-12-11T11:08:13.327Z,56
2022-12-11T11:09:13.286Z,56
2022-12-11T11:10:13.323Z,56.2143
2022-12-11T11:11:13.356Z,56.3571
2022-12-11T11:12:13.372Z,56.2143
2022-12-11T11:13:13.422Z,56.3571
2022-12-11T11:14:13.439Z,56.2857
2022-12-11T11:15:13.827Z,56.3571
2022-12-11T11:16:13.624Z,56.2857
2022-12-11T11:17:13.538Z,56.4286
2022-12-11T11:18:13.577Z,56.5
2022-12-11T11:19:13.649Z,56.5
2022-12-11T11:20:13.627Z,56.5
2022-12-11T11:21:13.659Z,56.3571
2022-12-11T11:22:13.699Z,56.3571
2022-12-11T11:23:13.730Z,56.5714
2022-12-11T11:24:13.774Z,56.5714
2022-12-11T11:25:13.926Z,56.7143
2022-12-11T11:26:13.834Z,56.7143
2022-12-11T11:27:14.159Z,56.8571
2022-12-11T11:28:13.873Z,56.7857
2022-12-11T11:29:13.908Z,56.7143
2022-12-11T11:30:13.952Z,56.7143
2022-12-11T11:31:14.090Z,56.7857
2022-12-11T11:32:14.004Z,56.6429
2022-12-11T11:33:14.047Z,56.6429
2022-12-11T11:34:14.078Z,56.7143
2022-12-11T11:35:14.315Z,56.4286
2022-12-11T11:36:14.170Z,56.5
2022-12-11T11:37:14.169Z,56.4286
2022-12-11T11:38:14.224Z,56.5714
2022-12-11T11:39:14.228Z,56.6429
2022-12-11T11:40:14.320Z,56.5
2022-12-11T11:41:15.286Z,56.2143
2022-12-11T11:42:14.330Z,56.0714
2022-12-11T11:43:14.373Z,56
2022-12-11T11:44:14.392Z,56
2022-12-11T11:45:14.435Z,55.9286
2022-12-11T11:46:14.519Z,56.0714
2022-12-11T11:47:14.485Z,56.0714
2022-12-11T11:48:14.512Z,56.2143
2022-12-11T11:49:14.546Z,56.1429
2022-12-11T11:50:14.586Z,56
2022-12-11T11:51:14.632Z,56
2022-12-11T11:52:14.654Z,56
2022-12-11T11:53:14.677Z,55.8571
2022-12-11T11:54:14.709Z,55.9286
2022-12-11T11:55:18.743Z,56
2022-12-11T11:56:14.792Z,55.6429
2022-12-11T11:57:14.807Z,55.8571
2022-12-11T11:58:14.850Z,56
2022-12-11T11:59:14.887Z,55.9286
2022-12-11T12:00:14.919Z,56.2143
2022-12-11T12:01:14.974Z,56.3571
2022-12-11T12:02:14.989Z,56.2143
2022-12-11T12:03:15.031Z,56.3571
2022-12-11T12:04:15.058Z,56.4286
2022-12-11T12:05:15.080Z,56.3571
2022-12-11T12:06:15.484Z,56.4286
2022-12-11T12:07:15.145Z,56.3571
2022-12-11T12:08:15.257Z,56.4286
2022-12-11T12:09:15.225Z,56.2857
2022-12-11T12:10:15.315Z,56.1429
2022-12-11T12:11:15.290Z,55.7857
2022-12-11T12:12:18.235Z,55.8571
2022-12-11T12:13:47.647Z,55.8571
2022-12-11T12:14:50.178Z,55.7143
2022-12-11T12:15:15.409Z,55.8571
2022-12-11T12:16:50.413Z,55.8571
2022-12-11T12:17:15.510Z,55.8571
2022-12-11T12:18:15.524Z,55.9286
2022-12-11T12:19:15.589Z,56.1429
2022-12-11T12:20:15.583Z,56.1429
2022-12-11T12:21:15.616Z,56
2022-12-11T12:22:15.637Z,56.2143